Hovedside
METAR-TAF:

METAR-TAF

Lufthavner :

Heidrunfeltet

Heidrun, Norge

breddegrad: 65-19-30N, lengdegrad: 007-19-36E, høyde over havet: 0 m

Gjeldene værobservasjon

Denne rapporten ble laget for 37 minutter siden, klokken 01:20 UTC
Vind 20 kt fra Sørøst
Temperatur 5°C
Luftfuktighet 65%
Trykk 982 hPa
Sikt 10 km eller mer
Spredte skyer i en høyde av 2500 ft

METAR: ENHE 140120Z 13020KT 9999 SCT025 05/M01 Q0982 W///S4

Tid: 02:57 (01:57 UTC)

Varsel

Denne rapporten ble laget for 2 timer og 57 minutter siden, klokken 23:00 UTC
Varsel gyldig fra 14. klokken 00 UTC til 14. klokken 09 UTC
Vind 22 kt fra Sør-sørøst
Sikt 10 km eller mer
Få skyer i en høyde av 2500 ft
Blir
fra 14. klokken 06 UTC til 14. klokken 08 UTC
Vind 32 kt fra Sør-sørøst

TAF: ENHE 132300Z 1400/1409 16022KT 9999 FEW025 BECMG 1406/1408 16032KT

Værobservasjoner og værvarsel for over 4000 flyplasser (METAR- og TAF-rapporter).

Tilgjengelige stasjoner er representert av de røde og gule prikkene på kartet.

Hold musepekeren over prikken for å se navnet på stasjonen.

Klikk så for å se værobservasjoner og -varsler.

For å forandre kartet kan du klikke på den grønne knappen med svart kryss for å zoome inn, på den grønne knappen med strek for å zoome ut, eller på de grønne pilene for å se tilstøtende kart.


METAR-TAF: